Terminal Aerodrome Forecast
Issued by NWS Cleveland, OH

Home | Current Version | Previous Version | Text Only | Print | Product List | Glossary On
Versions: 1 2 3 4 5 6 7 8 9 10 11 12 13 14 15 16 17 18 19 20 21
141
FTUS41 KCLE 261738
TAFYNG
TAF
KYNG 261738Z 2618/2718 29010KT P6SM BKN025 OVC035
     FM270000 VRB04KT P6SM BKN035
     FM270800 11005KT 6SM -SHRA VCTS SCT025CB OVC035
     FM271400 03006KT P6SM BKN008=

USA.gov is the U.S. government's official web portal to all federal, state and local government web resources and services.